Time;durP1;ratioP1;P1;durP2;ratioP2;P2;SDS_P1;SDS_P2;PMS_P1;PMS_P2;Temp;Humidity;BMP_temperature;BMP_pressure;BME280_temperature;BME280_humidity;BME280_pressure;Samples;Min_cycle;Max_cycle;Signal;HPM_P1;HPM_P2
2021/03/17 00:01:36;;;;;;;30.77;18.27;;;;;;;-0.20;93.75;101329.50;5035445;28;20572;-72
2021/03/17 00:04:02;;;;;;;32.53;18.23;;;;;;;-0.28;94.22;101324.25;5035197;28;20184;-71
2021/03/17 00:06:27;;;;;;;42.10;19.00;;;;;;;-0.32;94.13;101326.03;5017356;28;20565;-72
2021/03/17 00:08:52;;;;;;;39.80;19.47;;;;;;;-0.31;94.43;101321.66;5017545;28;20235;-72
2021/03/17 00:11:18;;;;;;;31.90;18.80;;;;;;;-0.35;94.36;101335.63;5018010;28;20183;-71
2021/03/17 00:13:44;;;;;;;31.43;17.47;;;;;;;-0.55;93.75;101338.25;5034446;28;20268;-72
2021/03/17 00:16:09;;;;;;;39.37;20.17;;;;;;;-0.60;94.47;101334.75;5001824;28;20263;-72
2021/03/17 00:18:34;;;;;;;35.13;19.40;;;;;;;-0.59;95.37;101341.75;5001212;28;20286;-71
2021/03/17 00:21:00;;;;;;;36.30;20.27;;;;;;;-0.58;96.03;101340.00;5017710;28;20180;-72
2021/03/17 00:23:25;;;;;;;44.73;20.87;;;;;;;-0.51;95.90;101333.88;5034910;28;20647;-71
2021/03/17 00:25:50;;;;;;;39.73;19.00;;;;;;;-0.55;95.84;101333.00;5035774;28;20179;-72
2021/03/17 00:28:16;;;;;;;38.13;20.60;;;;;;;-0.53;96.00;101335.63;5000963;28;20224;-72
2021/03/17 00:30:41;;;;;;;37.07;20.80;;;;;;;-0.52;95.67;101334.75;5034747;28;20526;-72
2021/03/17 00:33:10;;;;;;;46.00;22.37;;;;;;;-0.51;95.87;101339.13;5017364;28;20612;-72
2021/03/17 00:35:36;;;;;;;59.63;26.40;;;;;;;-0.44;96.28;101343.47;5035070;28;20600;-72
2021/03/17 00:38:02;;;;;;;47.20;23.57;;;;;;;-0.50;96.47;101339.13;5034834;28;20219;-72
2021/03/17 00:40:27;;;;;;;54.57;25.33;;;;;;;-0.35;96.59;101341.75;5035159;28;20172;-71
2021/03/17 00:42:53;;;;;;;54.83;24.87;;;;;;;-0.32;95.88;101344.38;5017471;28;20537;-72
2021/03/17 00:45:18;;;;;;;59.23;24.27;;;;;;;-0.39;95.89;101339.97;5017081;28;20180;-72
2021/03/17 00:47:44;;;;;;;57.17;24.63;;;;;;;-0.30;95.34;101343.50;5034673;28;20192;-72
2021/03/17 00:50:11;;;;;;;46.47;21.30;;;;;;;-0.37;95.56;101335.63;5035014;28;20230;-72
2021/03/17 00:52:36;;;;;;;54.03;23.90;;;;;;;-0.33;95.43;101334.75;5033297;28;20660;-71
2021/03/17 00:55:03;;;;;;;45.57;22.37;;;;;;;-0.33;95.15;101341.75;5000058;28;20238;-71
2021/03/17 00:57:28;;;;;;;46.00;23.87;;;;;;;-0.26;94.65;101342.63;5034097;28;20528;-72
2021/03/17 00:59:53;;;;;;;43.73;21.67;;;;;;;-0.22;94.08;101350.50;5034437;28;20278;-72
2021/03/17 01:02:19;;;;;;;42.10;21.87;;;;;;;-0.20;94.08;101334.75;5016506;28;20259;-72
2021/03/17 01:04:44;;;;;;;47.93;20.80;;;;;;;-0.16;94.39;101346.97;5016806;28;20261;-72
2021/03/17 01:07:15;;;;;;;43.70;21.57;;;;;;;-0.16;93.27;101354.84;5000123;28;20202;-71
2021/03/17 01:09:41;;;;;;;35.33;19.20;;;;;;;-0.17;93.44;101348.72;5016606;28;20242;-70
2021/03/17 01:12:09;;;;;;;37.90;19.60;;;;;;;-0.15;93.62;101348.72;5034867;28;20176;-72
2021/03/17 01:14:36;;;;;;;37.93;19.97;;;;;;;-0.16;93.41;101347.84;5017137;28;20265;-70
2021/03/17 01:17:02;;;;;;;38.67;19.97;;;;;;;-0.15;92.82;101344.34;5015895;28;20335;-70
2021/03/17 01:19:27;;;;;;;44.33;21.40;;;;;;;-0.11;92.61;101353.97;5016145;28;20227;-71
2021/03/17 01:21:53;;;;;;;36.37;20.27;;;;;;;-0.11;92.89;101339.97;5016354;28;20264;-70
2021/03/17 01:24:18;;;;;;;33.73;18.80;;;;;;;-0.04;92.49;101347.81;5016490;28;20179;-71
2021/03/17 01:26:43;;;;;;;40.00;18.60;;;;;;;-0.08;91.93;101351.34;5033709;28;20224;-71
2021/03/17 01:29:09;;;;;;;35.17;17.67;;;;;;;-0.06;92.60;101356.59;5016412;28;20772;-71
2021/03/17 01:31:34;;;;;;;31.67;18.23;;;;;;;-0.16;92.10;101362.72;5016353;28;20180;-71
2021/03/17 01:33:59;;;;;;;35.27;18.97;;;;;;;-0.18;92.02;101359.22;5016886;28;20180;-72
2021/03/17 01:36:24;;;;;;;37.50;19.23;;;;;;;-0.15;91.99;101353.97;5034289;28;20172;-71
2021/03/17 01:38:50;;;;;;;31.30;16.43;;;;;;;-0.07;92.16;101362.72;5034581;28;20558;-71
2021/03/17 01:41:15;;;;;;;32.30;16.93;;;;;;;-0.04;91.43;101367.94;5033036;28;20179;-71
2021/03/17 01:43:41;;;;;;;24.53;14.13;;;;;;;-0.05;91.54;101358.34;5034484;28;20173;-71
2021/03/17 01:46:06;;;;;;;25.10;13.80;;;;;;;-0.01;91.07;101362.69;5016515;28;20200;-70
2021/03/17 01:48:32;;;;;;;30.97;15.13;;;;;;;0.02;91.26;101364.47;5016176;28;20631;-70
2021/03/17 01:50:58;;;;;;;25.40;16.13;;;;;;;0.10;90.87;101366.19;5016541;28;20641;-70
2021/03/17 01:53:27;;;;;;;31.20;16.53;;;;;;;0.12;90.76;101367.06;5033494;28;20181;-70
2021/03/17 01:55:52;;;;;;;28.63;17.17;;;;;;;0.04;90.69;101362.72;5033410;28;20173;-70
2021/03/17 01:58:18;;;;;;;32.33;18.67;;;;;;;-0.02;90.80;101358.31;5034284;28;20195;-70
2021/03/17 02:00:44;;;;;;;35.23;17.70;;;;;;;-0.07;91.34;101357.47;5034876;28;20219;-70
2021/03/17 02:03:09;;;;;;;32.70;18.70;;;;;;;-0.02;91.00;101359.19;5034518;28;20173;-70
2021/03/17 02:05:40;;;;;;;36.57;17.23;;;;;;;-0.02;91.26;101355.69;5034459;28;20684;-70
2021/03/17 02:08:07;;;;;;;33.40;19.03;;;;;;;-0.06;91.36;101357.47;5032673;28;20215;-71
2021/03/17 02:10:34;;;;;;;32.93;17.17;;;;;;;0.01;90.77;101358.34;5000384;28;20172;-70
2021/03/17 02:13:05;;;;;;;31.13;17.33;;;;;;;0.06;90.42;101353.09;5034292;28;20191;-70
2021/03/17 02:15:44;;;;;;;32.10;17.13;;;;;;;0.07;90.43;101360.09;5034750;28;20563;-70
2021/03/17 02:18:36;;;;;;;28.97;17.47;;;;;;;0.07;90.80;101360.09;5000107;28;20191;-71
2021/03/17 02:21:13;;;;;;;30.50;16.97;;;;;;;0.10;90.51;101355.69;5016905;28;20648;-72
2021/03/17 02:23:47;;;;;;;33.27;17.43;;;;;;;0.17;89.91;101359.19;5033953;28;20501;-71
2021/03/17 02:26:39;;;;;;;26.87;15.93;;;;;;;0.20;89.77;101361.81;5016340;28;20242;-71
2021/03/17 02:29:29;;;;;;;34.80;17.10;;;;;;;0.21;89.83;101360.91;5013298;28;20212;-71
2021/03/17 02:32:09;;;;;;;29.80;16.07;;;;;;;0.25;89.21;101373.16;5037821;28;20164;-71
2021/03/17 02:34:43;;;;;;;26.97;15.00;;;;;;;0.22;89.01;101366.16;5003183;28;20180;-71
2021/03/17 02:37:13;;;;;;;27.73;15.83;;;;;;;0.21;88.69;101364.41;5037168;28;20628;-71
2021/03/17 02:39:58;;;;;;;34.27;18.13;;;;;;;0.08;89.72;101362.72;5035909;28;20200;-71
2021/03/17 02:42:31;;;;;;;34.10;16.67;;;;;;;0.07;90.07;101366.22;5002938;28;20173;-71
2021/03/17 02:45:02;;;;;;;24.63;14.47;;;;;;;0.13;89.53;101360.94;5019224;28;20173;-71
2021/03/17 02:47:29;;;;;;;29.13;16.77;;;;;;;0.18;89.19;101360.94;5035828;28;20183;-71
2021/03/17 02:49:57;;;;;;;27.13;16.97;;;;;;;0.09;89.01;101364.47;5019070;28;20189;-71
2021/03/17 02:52:25;;;;;;;23.40;15.03;;;;;;;0.09;89.71;101367.06;5019633;28;20568;-71
2021/03/17 02:54:50;;;;;;;31.03;15.93;;;;;;;0.06;89.05;101359.22;5019361;28;20180;-71
2021/03/17 02:57:20;;;;;;;29.83;15.93;;;;;;;0.01;89.81;101363.59;5019502;28;20177;-71
2021/03/17 02:59:51;;;;;;;26.57;15.73;;;;;;;0.10;89.35;101357.47;5037777;28;20244;-71
2021/03/17 03:02:17;;;;;;;29.87;17.80;;;;;;;-0.08;90.48;101358.34;5037176;28;20194;-71
2021/03/17 03:04:43;;;;;;;26.77;16.70;;;;;;;-0.07;90.39;101371.44;5018912;28;20706;-71
2021/03/17 03:07:09;;;;;;;35.20;16.83;;;;;;;-0.05;90.75;101356.59;5018484;28;20201;-71
2021/03/17 03:09:35;;;;;;;35.40;17.60;;;;;;;0.04;90.33;101363.59;5018312;28;20231;-71
2021/03/17 03:12:00;;;;;;;33.97;18.87;;;;;;;0.03;90.12;101350.47;5036451;28;20684;-71
2021/03/17 03:14:26;;;;;;;35.87;17.57;;;;;;;-0.06;90.79;101359.22;5019102;28;20238;-71
2021/03/17 03:16:55;;;;;;;35.97;17.57;;;;;;;-0.01;90.88;101354.81;5019021;28;20177;-71
2021/03/17 03:19:23;;;;;;;29.43;17.37;;;;;;;-0.06;90.63;101364.47;5019140;28;20195;-71
2021/03/17 03:21:49;;;;;;;30.33;18.53;;;;;;;-0.02;90.78;101360.94;5019585;28;20522;-71
2021/03/17 03:24:16;;;;;;;30.83;17.47;;;;;;;-0.02;90.96;101363.56;5019071;28;20199;-71
2021/03/17 03:26:41;;;;;;;32.07;16.57;;;;;;;-0.02;90.56;101361.81;5035955;28;20295;-72
2021/03/17 03:29:06;;;;;;;30.63;16.33;;;;;;;0.07;90.89;101368.84;5018438;28;20266;-71
2021/03/17 03:31:32;;;;;;;28.80;16.83;;;;;;;0.16;89.67;101371.44;5019031;28;20185;-71
2021/03/17 03:33:57;;;;;;;31.80;17.10;;;;;;;0.09;90.49;101369.69;5018923;28;20180;-71
2021/03/17 03:36:24;;;;;;;32.43;17.00;;;;;;;0.14;89.85;101361.81;5018860;28;20175;-71
2021/03/17 03:38:50;;;;;;;32.00;16.60;;;;;;;0.15;90.29;101369.69;5035060;28;20195;-71
2021/03/17 03:41:15;;;;;;;31.97;17.17;;;;;;;0.12;90.21;101361.81;5036364;28;20172;-72
2021/03/17 03:43:40;;;;;;;32.83;17.43;;;;;;;0.11;90.08;101369.69;5036925;28;20183;-72
2021/03/17 03:46:06;;;;;;;30.13;17.33;;;;;;;0.02;90.29;101370.59;5002431;28;20235;-71
2021/03/17 03:48:31;;;;;;;30.83;17.00;;;;;;;-0.01;90.66;101370.56;5035828;28;20196;-71
2021/03/17 03:50:57;;;;;;;30.77;16.53;;;;;;;0.02;90.83;101369.72;5001704;28;20230;-71
2021/03/17 03:53:28;;;;;;;31.47;19.00;;;;;;;-0.04;90.74;101375.81;5018383;28;20176;-72
2021/03/17 03:56:04;;;;;;;33.93;18.67;;;;;;;-0.03;90.87;101372.31;5035866;28;20192;-71
2021/03/17 03:58:37;;;;;;;36.43;19.03;;;;;;;-0.02;91.29;101372.31;5035793;28;20191;-71
2021/03/17 04:01:09;;;;;;;27.77;17.50;;;;;;;0.05;91.17;101373.22;5018569;28;20625;-71
2021/03/17 04:03:38;;;;;;;34.37;17.70;;;;;;;0.05;91.24;101374.97;5017721;28;20676;-71
2021/03/17 04:06:04;;;;;;;31.00;17.53;;;;;;;0.06;91.05;101376.72;5018092;28;20183;-71
2021/03/17 04:08:30;;;;;;;33.23;18.93;;;;;;;0.13;90.93;101371.44;5018553;28;20633;-71
2021/03/17 04:10:58;;;;;;;32.20;17.37;;;;;;;0.11;90.65;101373.19;5018746;28;20675;-71
2021/03/17 04:13:25;;;;;;;39.73;18.53;;;;;;;0.14;90.11;101370.56;5035965;28;20172;-70
2021/03/17 04:15:54;;;;;;;41.57;19.07;;;;;;;0.14;90.78;101381.06;5036015;28;20176;-71
2021/03/17 04:18:20;;;;;;;36.57;19.70;;;;;;;0.13;90.58;101381.06;5001552;28;20200;-71
2021/03/17 04:20:49;;;;;;;32.87;18.47;;;;;;;0.13;90.74;101384.56;5034124;28;20177;-71
2021/03/17 04:23:16;;;;;;;35.57;19.77;;;;;;;0.09;90.80;101385.47;5018560;28;20266;-71
2021/03/17 04:25:47;;;;;;;34.10;17.93;;;;;;;0.07;90.62;101389.84;5034935;28;20247;-71
2021/03/17 04:28:15;;;;;;;40.87;19.30;;;;;;;0.11;90.87;101382.81;5018599;28;20284;-71
2021/03/17 04:30:42;;;;;;;36.90;19.27;;;;;;;0.10;91.07;101383.69;5002768;28;20207;-70
2021/03/17 04:33:07;;;;;;;36.47;18.30;;;;;;;0.12;90.94;101380.19;5002622;28;20572;-71
2021/03/17 04:35:33;;;;;;;32.83;18.87;;;;;;;0.11;90.95;101383.69;5018292;28;20179;-70
2021/03/17 04:37:58;;;;;;;34.43;18.83;;;;;;;0.13;90.59;101392.44;5023892;28;20191;-71
2021/03/17 04:40:24;;;;;;;34.97;17.77;;;;;;;0.20;90.61;101393.31;5033079;28;20180;-71
2021/03/17 04:42:50;;;;;;;29.80;18.47;;;;;;;0.18;90.63;101395.94;5048352;28;20202;-70
2021/03/17 04:45:16;;;;;;;30.83;18.33;;;;;;;0.11;90.46;101394.19;5030035;28;20176;-70
2021/03/17 04:47:43;;;;;;;40.70;19.37;;;;;;;0.14;90.50;101398.56;5047312;28;20557;-70
2021/03/17 04:50:12;;;;;;;35.03;18.20;;;;;;;0.13;90.54;101397.69;5047046;28;20169;-71
2021/03/17 04:52:39;;;;;;;33.00;18.93;;;;;;;0.14;90.63;101398.56;5046637;28;20168;-70
2021/03/17 04:55:05;;;;;;;37.33;18.60;;;;;;;0.10;90.93;101404.69;5048976;28;20180;-71
2021/03/17 04:57:34;;;;;;;32.20;17.77;;;;;;;0.08;90.75;101403.84;5048180;28;20222;-71
2021/03/17 04:59:59;;;;;;;34.67;18.87;;;;;;;0.03;90.86;101406.47;5047484;28;20173;-71
2021/03/17 05:02:28;;;;;;;33.87;18.60;;;;;;;-0.01;91.71;101415.19;5046421;28;20187;-72
2021/03/17 05:04:54;;;;;;;30.57;18.47;;;;;;;0.01;91.61;101421.34;5046489;28;20172;-72
2021/03/17 05:07:20;;;;;;;32.17;17.20;;;;;;;0.03;91.22;101419.59;5029402;28;20208;-72
2021/03/17 05:09:46;;;;;;;33.10;18.10;;;;;;;-0.01;91.50;101425.69;5044592;28;20283;-71
2021/03/17 05:12:13;;;;;;;31.13;16.93;;;;;;;0.07;91.40;101418.72;5047909;28;20184;-71
2021/03/17 05:14:39;;;;;;;35.20;20.17;;;;;;;-0.07;91.22;101423.94;5049554;28;20184;-71
2021/03/17 05:17:05;;;;;;;32.27;17.43;;;;;;;0.09;91.53;101430.06;5032338;28;20172;-71
2021/03/17 05:19:31;;;;;;;36.53;18.27;;;;;;;0.18;91.08;101426.56;5051894;28;20192;-71
2021/03/17 05:21:57;;;;;;;31.70;18.27;;;;;;;0.24;90.60;101423.94;5048215;28;20180;-71
2021/03/17 05:24:24;;;;;;;28.83;18.30;;;;;;;0.20;90.58;101425.69;5029219;28;20180;-71
2021/03/17 05:26:49;;;;;;;38.07;19.97;;;;;;;0.18;90.31;101426.56;5031427;28;20189;-72
2021/03/17 05:29:16;;;;;;;31.50;18.63;;;;;;;0.21;90.51;101431.81;5049589;28;20196;-71
2021/03/17 05:31:42;;;;;;;34.37;18.90;;;;;;;0.19;90.30;101433.56;5034831;28;20203;-71
2021/03/17 05:34:07;;;;;;;32.03;18.37;;;;;;;0.19;90.84;101431.81;5033804;28;20180;-71
2021/03/17 05:36:33;;;;;;;32.20;18.40;;;;;;;0.18;91.27;101437.94;5032619;28;20180;-71
2021/03/17 05:38:59;;;;;;;30.10;17.27;;;;;;;0.20;91.00;101441.44;5033555;28;20180;-71
2021/03/17 05:41:24;;;;;;;35.43;19.30;;;;;;;0.14;90.69;101438.81;5047793;28;20169;-71
2021/03/17 05:43:49;;;;;;;31.50;18.90;;;;;;;0.12;91.42;101439.69;5032081;28;20203;-71
2021/03/17 05:46:15;;;;;;;28.40;18.27;;;;;;;0.12;90.92;101440.56;5035291;28;20193;-71
2021/03/17 05:48:42;;;;;;;30.43;17.67;;;;;;;0.21;90.90;101447.56;5034596;28;20181;-70
2021/03/17 05:51:07;;;;;;;33.53;16.97;;;;;;;0.26;90.49;101438.78;5036434;28;20177;-70
2021/03/17 05:53:33;;;;;;;30.20;18.40;;;;;;;0.17;90.72;101451.06;5033587;28;20229;-70
2021/03/17 05:56:02;;;;;;;31.53;18.30;;;;;;;0.08;91.34;101454.56;5049362;28;20169;-71
2021/03/17 05:58:28;;;;;;;34.73;18.43;;;;;;;0.11;91.44;101458.94;5052938;28;20196;-69
2021/03/17 06:00:54;;;;;;;34.37;17.83;;;;;;;0.09;91.46;101453.69;5052650;28;20264;-70
2021/03/17 06:03:20;;;;;;;32.73;17.97;;;;;;;0.14;91.46;101461.56;5055980;28;20168;-70
2021/03/17 06:05:46;;;;;;;33.13;17.73;;;;;;;0.13;91.25;101462.44;5047647;28;20223;-67
2021/03/17 06:08:18;;;;;;;30.17;17.00;;;;;;;0.15;91.03;101456.31;5039542;28;20212;-68
2021/03/17 06:10:44;;;;;;;33.77;19.87;;;;;;;0.19;91.26;101458.06;5038221;28;20264;-68
2021/03/17 06:13:14;;;;;;;33.37;19.63;;;;;;;0.27;91.05;101469.44;5022772;28;20195;-68
2021/03/17 06:15:46;;;;;;;35.53;18.60;;;;;;;0.28;90.70;101470.31;5039939;28;20161;-68
2021/03/17 06:18:34;;;;;;;30.73;18.80;;;;;;;0.28;90.60;101476.44;5038814;28;20201;-67
2021/03/17 06:20:59;;;;;;;34.23;17.70;;;;;;;0.35;90.47;101479.03;5022766;28;20172;-67
2021/03/17 06:23:25;;;;;;;28.00;16.70;;;;;;;0.47;90.61;101484.31;5038973;28;20700;-69
2021/03/17 06:25:50;;;;;;;31.73;18.20;;;;;;;0.49;90.28;101483.44;5039763;28;20172;-69
2021/03/17 06:28:16;;;;;;;27.07;16.80;;;;;;;0.62;89.89;101492.16;5054824;28;20211;-73
2021/03/17 06:30:42;;;;;;;28.40;15.87;;;;;;;0.72;89.38;101491.25;5023007;28;20188;-72
2021/03/17 06:33:07;;;;;;;28.93;15.83;;;;;;;0.71;88.85;101492.13;5056932;28;20173;-71
2021/03/17 06:35:33;;;;;;;22.40;14.87;;;;;;;0.68;89.72;101486.00;5056197;28;20263;-74
2021/03/17 06:37:59;;;;;;;28.93;17.53;;;;;;;0.65;89.28;101496.53;5056503;28;20192;-72
2021/03/17 06:40:28;;;;;;;27.17;17.00;;;;;;;0.57;89.85;101501.78;5040185;28;20157;-71
2021/03/17 06:43:15;;;;;;;26.23;15.40;;;;;;;0.65;89.29;101497.41;5056620;28;20167;-73
2021/03/17 06:45:46;;;;;;;27.93;16.63;;;;;;;0.57;89.50;101496.53;5056129;28;20272;-72
2021/03/17 06:48:19;;;;;;;28.83;16.50;;;;;;;0.47;90.15;101502.69;5056840;28;20208;-71
2021/03/17 06:50:46;;;;;;;29.87;18.13;;;;;;;0.42;90.46;101501.81;5055952;28;20178;-73
2021/03/17 06:53:11;;;;;;;25.77;17.23;;;;;;;0.40;90.73;101504.47;5054992;28;20232;-73
2021/03/17 06:55:37;;;;;;;31.70;19.07;;;;;;;0.42;91.00;101507.06;5055608;28;20244;-73
2021/03/17 06:58:02;;;;;;;29.47;16.60;;;;;;;0.51;90.49;101499.19;5055391;28;20188;-72
2021/03/17 07:00:34;;;;;;;35.43;19.00;;;;;;;0.47;90.36;101513.19;5037690;28;20197;-72
2021/03/17 07:03:06;;;;;;;27.40;16.57;;;;;;;0.54;90.37;101510.56;5055539;28;20153;-72
2021/03/17 07:05:45;;;;;;;29.13;16.87;;;;;;;0.64;89.77;101514.03;5056492;28;20158;-73
2021/03/17 07:08:11;;;;;;;27.10;17.13;;;;;;;0.62;89.64;101506.16;5055981;28;20237;-72
2021/03/17 07:10:42;;;;;;;28.37;17.20;;;;;;;0.61;90.14;101514.91;5037719;28;20168;-72
2021/03/17 07:13:10;;;;;;;29.07;15.93;;;;;;;0.71;90.25;101509.66;5038693;28;20167;-72
2021/03/17 07:15:37;;;;;;;28.83;17.53;;;;;;;0.86;89.56;101515.75;5055592;28;20216;-72
2021/03/17 07:18:17;;;;;;;24.37;16.03;;;;;;;0.92;88.65;101506.97;5055181;28;20189;-73
2021/03/17 07:21:06;;;;;;;23.93;14.90;;;;;;;1.07;88.63;101511.31;5050646;28;20280;-73
2021/03/17 07:23:34;;;;;;;24.17;15.30;;;;;;;1.04;88.13;101516.56;5048457;28;20241;-74
2021/03/17 07:26:21;;;;;;;26.60;15.80;;;;;;;0.92;89.17;101509.63;5046183;28;20168;-74
2021/03/17 07:28:47;;;;;;;23.47;15.30;;;;;;;1.25;89.92;101524.41;5045469;28;20190;-72
2021/03/17 07:31:13;;;;;;;24.90;16.20;;;;;;;1.46;88.50;101512.91;5029110;28;20692;-72
2021/03/17 07:33:39;;;;;;;25.37;16.03;;;;;;;1.61;87.32;101519.88;5042954;28;20210;-73
2021/03/17 07:36:04;;;;;;;23.23;14.93;;;;;;;1.74;87.31;101519.78;5043467;28;20173;-73
2021/03/17 07:38:30;;;;;;;20.97;14.47;;;;;;;1.76;87.67;101520.66;5039571;28;20286;-72
2021/03/17 07:40:55;;;;;;;19.77;13.53;;;;;;;2.12;86.76;101527.44;5020153;28;20182;-71
2021/03/17 07:43:21;;;;;;;20.23;14.27;;;;;;;2.24;85.89;101528.25;5037585;28;20536;-72
2021/03/17 07:45:46;;;;;;;21.97;15.30;;;;;;;2.07;86.72;101530.97;5021098;28;20675;-73
2021/03/17 07:48:12;;;;;;;21.77;15.17;;;;;;;2.23;88.61;101527.38;5041151;28;20266;-72
2021/03/17 07:50:40;;;;;;;18.17;13.43;;;;;;;2.39;89.83;101536.88;5036438;28;20172;-72
2021/03/17 07:53:12;;;;;;;23.13;15.60;;;;;;;2.61;91.21;101529.69;5018986;28;20183;-72
2021/03/17 07:55:41;;;;;;;24.37;15.33;;;;;;;2.46;89.95;101532.44;5002044;28;20179;-73
2021/03/17 07:58:06;;;;;;;19.97;13.67;;;;;;;2.19;91.70;101542.28;5018268;28;20245;-71
2021/03/17 08:00:32;;;;;;;23.13;14.83;;;;;;;2.45;92.64;101539.47;5036620;28;20187;-72
2021/03/17 08:02:57;;;;;;;22.10;14.83;;;;;;;2.58;90.65;101539.34;5017825;28;20176;-71
2021/03/17 08:05:23;;;;;;;19.77;14.10;;;;;;;2.81;89.40;101543.53;5018297;28;20198;-72
2021/03/17 08:07:49;;;;;;;22.50;15.37;;;;;;;2.67;89.72;101545.44;5017307;28;20195;-73
2021/03/17 08:10:15;;;;;;;21.23;14.43;;;;;;;3.02;90.80;101545.09;5017416;28;20629;-72
2021/03/17 08:12:44;;;;;;;22.50;13.97;;;;;;;3.16;92.00;101550.22;5019238;28;20203;-73
2021/03/17 08:15:12;;;;;;;16.40;11.50;;;;;;;3.57;90.78;101546.19;5018396;28;20656;-74
2021/03/17 08:17:38;;;;;;;16.00;12.90;;;;;;;3.83;89.21;101549.38;5035849;28;20692;-73
2021/03/17 08:20:18;;;;;;;16.23;12.07;;;;;;;3.58;88.62;101548.81;5036488;28;20180;-73
2021/03/17 08:22:43;;;;;;;14.50;11.50;;;;;;;3.59;88.63;101550.56;5018895;28;20175;-74
2021/03/17 08:25:10;;;;;;;17.67;12.97;;;;;;;2.99;88.42;101546.91;5035290;28;20180;-74
2021/03/17 08:27:35;;;;;;;16.70;12.53;;;;;;;3.17;90.67;101551.09;5035896;28;20192;-73
2021/03/17 08:30:13;;;;;;;17.90;12.07;;;;;;;3.34;90.39;101547.34;5034935;28;20195;-73
2021/03/17 08:32:51;;;;;;;18.83;13.93;;;;;;;3.08;90.02;101549.44;5024078;28;20235;-73
2021/03/17 08:35:17;;;;;;;19.60;13.13;;;;;;;3.44;92.60;101551.66;5004653;28;20172;-73
2021/03/17 08:37:47;;;;;;;17.53;13.63;;;;;;;2.98;90.25;101550.41;5037939;28;20703;-73
2021/03/17 08:40:28;;;;;;;14.80;11.50;;;;;;;2.82;90.26;101560.22;5037989;28;20177;-73
2021/03/17 08:42:53;;;;;;;16.00;12.03;;;;;;;2.50;90.75;101557.88;5037148;28;20172;-73
2021/03/17 08:45:20;;;;;;;18.70;12.17;;;;;;;2.29;91.26;101564.19;5035967;28;20314;-73
2021/03/17 08:47:46;;;;;;;20.10;13.83;;;;;;;2.19;92.06;101563.38;5017863;28;20744;-73
2021/03/17 08:50:14;;;;;;;22.13;13.70;;;;;;;2.35;93.18;101571.19;5036811;28;20541;-73
2021/03/17 08:52:42;;;;;;;20.67;13.53;;;;;;;2.37;91.26;101567.66;5039986;28;20572;-73
2021/03/17 08:55:10;;;;;;;18.53;13.10;;;;;;;2.44;91.64;101579.00;5036265;28;20229;-73
2021/03/17 08:57:52;;;;;;;21.97;13.50;;;;;;;2.54;91.61;101571.88;5035184;28;20235;-73
2021/03/17 09:00:40;;;;;;;19.23;12.77;;;;;;;2.61;91.48;101574.50;5037174;28;20156;-74
2021/03/17 09:03:06;;;;;;;17.83;12.00;;;;;;;2.62;91.97;101578.88;5023511;28;20171;-72
2021/03/17 09:05:32;;;;;;;18.93;12.43;;;;;;;2.78;91.87;101582.25;5041604;28;20174;-71
2021/03/17 09:08:04;;;;;;;15.43;11.77;;;;;;;2.77;90.16;101585.75;5041261;28;20219;-73
2021/03/17 09:10:44;;;;;;;20.00;13.00;;;;;;;2.67;91.67;101578.84;5040000;28;20157;-72
2021/03/17 09:13:10;;;;;;;21.10;13.87;;;;;;;2.82;91.47;101579.56;5022036;28;20251;-72
2021/03/17 09:15:43;;;;;;;20.97;13.10;;;;;;;3.11;92.64;101588.94;5039013;28;20175;-71
2021/03/17 09:18:09;;;;;;;12.90;9.50;;;;;;;3.59;85.58;101576.97;5039211;28;20212;-71
2021/03/17 09:20:39;;;;;;;14.00;10.70;;;;;;;3.42;88.71;101577.19;5020690;28;20176;-73
2021/03/17 09:23:10;;;;;;;14.47;9.90;;;;;;;4.02;88.57;101595.75;5037016;28;20190;-73
2021/03/17 09:25:49;;;;;;;23.17;13.87;;;;;;;3.81;83.76;101596.06;5035342;28;20152;-74
2021/03/17 09:28:35;;;;;;;15.93;10.83;;;;;;;3.97;83.05;101588.78;5036777;28;20200;-72
2021/03/17 09:31:11;;;;;;;12.90;9.77;;;;;;;3.78;79.55;101593.47;5037521;28;20175;-72
2021/03/17 09:33:38;;;;;;;11.83;9.10;;;;;;;3.97;78.70;101594.94;5034422;28;20656;-73
2021/03/17 09:36:06;;;;;;;13.30;9.80;;;;;;;4.03;77.38;101589.56;5000061;28;20211;-72
2021/03/17 09:38:33;;;;;;;9.17;7.20;;;;;;;3.97;76.24;101600.22;5003352;28;20198;-73
2021/03/17 09:41:09;;;;;;;11.37;8.63;;;;;;;3.98;77.31;101599.34;5003386;28;20175;-73
2021/03/17 09:43:41;;;;;;;10.03;7.93;;;;;;;3.96;77.55;101606.41;5020364;28;20620;-73
2021/03/17 09:46:42;;;;;;;12.77;9.17;;;;;;;3.74;78.36;101603.19;5020362;28;20674;-73
2021/03/17 09:49:12;;;;;;;11.53;8.83;;;;;;;3.69;79.06;101604.13;5007139;28;20204;-73
2021/03/17 09:51:38;;;;;;;13.80;8.53;;;;;;;3.59;78.46;101608.63;5037632;28;20560;-70
2021/03/17 09:54:07;;;;;;;11.50;8.17;;;;;;;3.45;79.84;101605.31;5037565;28;20176;-71
2021/03/17 09:56:38;;;;;;;11.73;8.77;;;;;;;3.18;80.07;101603.81;5003440;28;20172;-71
2021/03/17 09:59:12;;;;;;;14.50;9.10;;;;;;;3.28;80.59;101604.59;5037265;28;20552;-72
2021/03/17 10:01:47;;;;;;;15.33;10.10;;;;;;;3.43;81.60;101605.31;5037922;28;20240;-72
2021/03/17 10:04:18;;;;;;;18.13;11.10;;;;;;;3.37;82.27;101609.78;5036980;28;20187;-72
2021/03/17 10:06:44;;;;;;;17.50;11.67;;;;;;;3.43;83.19;101607.97;5019238;28;20218;-71
2021/03/17 10:09:10;;;;;;;18.13;11.23;;;;;;;3.55;84.03;101611.34;5040647;28;20553;-72
2021/03/17 10:11:35;;;;;;;14.90;11.27;;;;;;;3.76;82.29;101616.38;5037750;28;20202;-72
2021/03/17 10:14:01;;;;;;;15.93;11.03;;;;;;;3.76;81.17;101621.66;5002716;28;20234;-73
2021/03/17 10:16:26;;;;;;;17.47;11.33;;;;;;;3.73;81.00;101605.84;5018919;28;20219;-73
2021/03/17 10:18:52;;;;;;;16.57;11.80;;;;;;;3.89;81.14;101611.81;5036539;28;20203;-73
2021/03/17 10:21:25;;;;;;;14.33;9.60;;;;;;;4.15;78.60;101616.75;5019047;28;20525;-73
2021/03/17 10:23:51;;;;;;;13.53;9.27;;;;;;;4.05;77.52;101615.97;5018988;28;20160;-73
2021/03/17 10:26:17;;;;;;;11.77;9.43;;;;;;;3.98;78.25;101615.19;5018753;28;20169;-71
2021/03/17 10:28:42;;;;;;;10.87;8.30;;;;;;;4.03;78.19;101621.28;5018923;28;20703;-71
2021/03/17 10:31:07;;;;;;;14.83;9.93;;;;;;;4.08;78.31;101624.72;5018741;28;20702;-72
2021/03/17 10:33:33;;;;;;;11.03;8.23;;;;;;;4.49;76.29;101628.56;5018759;28;20164;-72
2021/03/17 10:35:58;;;;;;;10.97;9.30;;;;;;;4.30;76.47;101629.72;5018532;28;20180;-71
2021/03/17 10:38:26;;;;;;;11.33;8.20;;;;;;;4.07;76.82;101620.34;5035891;28;20199;-71
2021/03/17 10:40:51;;;;;;;12.23;8.80;;;;;;;4.21;76.47;101625.44;5002127;28;20203;-71
2021/03/17 10:43:18;;;;;;;10.80;8.80;;;;;;;4.47;76.57;101626.84;5018864;28;20174;-72
2021/03/17 10:45:46;;;;;;;10.97;7.47;;;;;;;4.46;74.28;101630.34;5019465;28;20175;-72
2021/03/17 10:48:13;;;;;;;11.00;8.23;;;;;;;4.47;73.28;101621.56;5036035;28;20200;-72
2021/03/17 10:50:40;;;;;;;13.13;8.83;;;;;;;4.89;74.71;101623.50;5036588;28;20176;-72
2021/03/17 10:53:28;;;;;;;11.47;8.43;;;;;;;5.19;73.02;101619.44;5037215;28;20696;-72
2021/03/17 10:55:55;;;;;;;11.80;7.57;;;;;;;5.48;71.19;101615.38;5019400;28;20165;-72
2021/03/17 10:58:30;;;;;;;12.13;7.97;;;;;;;5.69;68.90;101624.69;5002636;28;20239;-73
2021/03/17 11:01:00;;;;;;;10.23;7.50;;;;;;;5.38;69.11;101619.09;5020047;28;20164;-71
2021/03/17 11:03:39;;;;;;;12.17;8.13;;;;;;;5.63;67.98;101615.09;5037595;28;20637;-73
2021/03/17 11:06:12;;;;;;;9.87;7.53;;;;;;;5.82;68.52;101624.38;5038187;28;20167;-74
2021/03/17 11:08:37;;;;;;;12.57;8.50;;;;;;;5.17;71.29;101620.34;5020829;28;20232;-72
2021/03/17 11:11:05;;;;;;;11.33;8.30;;;;;;;4.82;70.95;101631.56;5019473;28;20177;-73
2021/03/17 11:13:31;;;;;;;10.43;7.70;;;;;;;4.78;71.51;101629.84;5019175;28;20169;-72
2021/03/17 11:15:59;;;;;;;11.57;7.00;;;;;;;5.10;69.53;101618.72;5002934;28;20172;-73
2021/03/17 11:18:27;;;;;;;10.17;7.50;;;;;;;4.47;71.58;101626.84;5019320;28;20595;-72
2021/03/17 11:20:55;;;;;;;10.27;7.00;;;;;;;4.78;70.98;101621.91;5036611;28;20226;-73
2021/03/17 11:23:29;;;;;;;10.33;7.03;;;;;;;4.89;70.33;101620.00;5036727;28;20172;-74